Terminal Aerodrome Forecast
Issued by NWS

Home | Current Version | Previous Version | Text Only | Print | Product List | Glossary On
Versions: 1 2 3 4 5 6 7 8 9 10 11 12 13
000
FTUS45 KVEF 202300
TAFVGT
TAF
KVGT 202320Z 2100/2124 14007KT P6SM VCTS FEW080CB BKN100
     FM210500 34005KT P6SM -SHRA VCTS SCT050CB BKN080
     FM210800 36005KT P6SM VCSH BKN080
     FM211400 06005KT P6SM BKN090
     FM211700 15006KT P6SM SCT090=

USA.gov is the U.S. government's official web portal to all federal, state and local government web resources and services.